Forside
METAR-TAF:

METAR-TAF

Lufthavne :

Davenport Municipal Airport

Davenport, Iowa, USA

Breddekreds: 41-36-50N, længdekreds: 090-35-29W, højde: 229 m

Aktuelle vejr

Denne rapport blev lavet for 31 minutter siden, kl. 06:52 UTC
Vind 7 kt fra sydvest
Temperatur 4°C
Fugtighed 70%
Tryk 1017 hPa
Sigt: 16.1 km
skyfri

METAR: KDVN 290652Z AUTO 22007KT 10SM CLR 04/M01 A3002 RMK AO2 SLP167 T00441011

Tid: 01:23 (07:23 UTC)


TAF: fraværende

Vejrobservationer og prognoser fra mere end 4000 lufthavne (METAR og TAF).

De gule og røde prikker repræsenterer de meteorologiske stationer.

Flyt musen over at se navnet på stationen.

Så klik over at se vejr observationer og prognoser.

At skifte det kort: Klik på de grønne knapper med et sort kors for at zoome ind; på den grønne knap med en bindestreg for at zoome ud; eller på de grønne pile for tilstødende kort.


METAR-TAF: